Time;durP1;ratioP1;P1;durP2;ratioP2;P2;SDS_P1;SDS_P2;PMS_P1;PMS_P2;Temp;Humidity;BMP_temperature;BMP_pressure;BME280_temperature;BME280_humidity;BME280_pressure;Samples;Min_cycle;Max_cycle;Signal;HPM_P1;HPM_P2
2023/04/25 00:00:52;;;;;;;11.67;4.90;;;6.20;99.90;;;;;;5036746;28;20264;-51
2023/04/25 00:03:18;;;;;;;12.43;5.00;;;6.20;99.90;;;;;;5037081;28;20204;-50
2023/04/25 00:05:45;;;;;;;14.20;5.43;;;6.20;99.90;;;;;;5036777;28;20700;-50
2023/04/25 00:08:10;;;;;;;11.57;4.67;;;7.10;99.90;;;;;;5036891;28;20185;-51
2023/04/25 00:10:36;;;;;;;9.40;4.50;;;6.10;99.90;;;;;;5036795;28;20242;-49
2023/04/25 00:13:02;;;;;;;11.90;4.27;;;6.10;99.90;;;;;;5036848;28;20204;-50
2023/04/25 00:15:30;;;;;;;13.93;5.20;;;6.00;99.90;;;;;;5036658;28;20181;-49
2023/04/25 00:17:56;;;;;;;12.37;4.43;;;6.00;99.90;;;;;;5036477;28;20199;-49
2023/04/25 00:20:23;;;;;;;13.63;4.60;;;5.90;99.90;;;;;;5036470;28;20201;-50
2023/04/25 00:22:49;;;;;;;15.33;4.57;;;5.90;99.90;;;;;;5036309;28;20200;-49
2023/04/25 00:25:15;;;;;;;11.87;4.07;;;5.90;99.90;;;;;;5036769;28;20310;-49
2023/04/25 00:27:41;;;;;;;12.03;4.07;;;5.80;99.90;;;;;;5036401;28;20611;-50
2023/04/25 00:30:07;;;;;;;13.77;4.30;;;5.80;99.90;;;;;;5036563;28;20197;-50
2023/04/25 00:32:33;;;;;;;13.50;4.07;;;5.70;99.90;;;;;;5036471;28;20232;-50
2023/04/25 00:34:59;;;;;;;12.10;4.17;;;5.70;99.90;;;;;;5036337;28;20215;-50
2023/04/25 00:37:24;;;;;;;8.43;4.07;;;5.60;99.90;;;;;;5036430;28;20180;-50
2023/04/25 00:39:53;;;;;;;11.80;4.70;;;5.60;99.90;;;;;;5036420;28;20215;-49
2023/04/25 00:42:19;;;;;;;10.80;3.53;;;5.50;99.90;;;;;;5036761;28;20290;-51
2023/04/25 00:44:45;;;;;;;9.33;4.13;;;5.50;99.90;;;;;;5036581;28;20183;-49
2023/04/25 00:47:11;;;;;;;7.73;4.20;;;5.50;99.90;;;;;;5036653;28;20211;-50
2023/04/25 00:49:36;;;;;;;15.73;4.17;;;5.50;99.90;;;;;;5036803;28;20567;-49
2023/04/25 00:52:02;;;;;;;14.53;3.57;;;5.50;99.90;;;;;;5037034;28;20279;-50
2023/04/25 00:54:28;;;;;;;11.93;4.20;;;5.40;99.90;;;;;;5020803;28;20661;-49
2023/04/25 00:56:54;;;;;;;8.40;4.30;;;5.40;99.90;;;;;;5046434;28;20192;-50
2023/04/25 00:59:20;;;;;;;10.93;4.43;;;5.40;99.90;;;;;;5052424;28;20203;-49
2023/04/25 01:01:45;;;;;;;13.33;4.20;;;5.40;99.90;;;;;;5039972;28;20196;-49
2023/04/25 01:04:12;;;;;;;11.97;4.27;;;5.30;99.90;;;;;;5036516;28;20596;-49
2023/04/25 01:06:38;;;;;;;11.10;4.20;;;5.30;99.90;;;;;;5036278;28;20187;-49
2023/04/25 01:09:04;;;;;;;14.97;4.73;;;5.30;99.90;;;;;;5035912;28;20182;-49
2023/04/25 01:11:30;;;;;;;12.67;4.57;;;5.30;99.90;;;;;;5036179;28;20609;-49
2023/04/25 01:13:56;;;;;;;11.00;4.63;;;5.20;99.90;;;;;;5035870;28;20332;-50
2023/04/25 01:16:23;;;;;;;9.83;4.50;;;5.20;99.90;;;;;;5035611;28;20546;-49
2023/04/25 01:18:51;;;;;;;11.10;4.50;;;5.20;99.90;;;;;;5036555;28;20309;-50
2023/04/25 01:21:17;;;;;;;15.77;5.23;;;5.10;99.90;;;;;;5035738;28;20187;-50
2023/04/25 01:23:43;;;;;;;11.80;4.70;;;5.10;99.90;;;;;;5035416;28;20216;-50
2023/04/25 01:26:10;;;;;;;12.10;4.90;;;5.10;99.90;;;;;;5035760;28;20570;-49
2023/04/25 01:28:36;;;;;;;11.50;4.23;;;5.10;99.90;;;;;;5035735;28;20263;-50
2023/04/25 01:31:03;;;;;;;13.57;4.70;;;5.10;99.90;;;;;;5035622;28;20187;-50
2023/04/25 01:33:29;;;;;;;11.27;4.10;;;5.00;99.90;;;;;;5035281;28;20208;-50
2023/04/25 01:35:55;;;;;;;10.10;4.73;;;5.00;99.90;;;;;;5035223;28;20247;-50
2023/04/25 01:38:20;;;;;;;9.07;4.33;;;5.00;99.90;;;;;;5035404;28;20652;-51
2023/04/25 01:40:47;;;;;;;14.20;4.33;;;5.00;99.90;;;;;;5035101;28;20262;-51
2023/04/25 01:43:14;;;;;;;13.67;4.10;;;5.00;99.90;;;;;;5035292;28;20212;-51
2023/04/25 01:45:41;;;;;;;15.37;4.37;;;5.00;99.90;;;;;;5035260;28;20238;-50
2023/04/25 01:48:07;;;;;;;8.43;3.77;;;5.00;99.90;;;;;;5035051;28;20637;-49
2023/04/25 01:50:33;;;;;;;11.10;3.70;;;5.00;99.90;;;;;;5034905;28;20200;-50
2023/04/25 01:52:59;;;;;;;10.10;4.03;;;5.00;99.90;;;;;;5035190;28;20223;-49
2023/04/25 01:55:26;;;;;;;12.70;4.10;;;5.00;99.90;;;;;;5035092;28;20182;-50
2023/04/25 01:57:51;;;;;;;15.77;4.53;;;4.90;99.90;;;;;;5034808;28;20205;-51
2023/04/25 02:00:17;;;;;;;10.97;4.40;;;4.90;99.90;;;;;;5033991;28;20247;-49
2023/04/25 02:02:43;;;;;;;12.57;4.23;;;4.80;99.90;;;;;;5034654;28;20205;-50
2023/04/25 02:05:08;;;;;;;10.23;4.13;;;4.90;99.90;;;;;;5034618;28;20180;-51
2023/04/25 02:07:34;;;;;;;12.33;4.60;;;5.00;99.90;;;;;;5034951;28;20182;-51
2023/04/25 02:10:00;;;;;;;10.97;4.30;;;5.00;99.90;;;;;;5034588;28;20215;-49
2023/04/25 02:12:26;;;;;;;11.37;4.90;;;5.00;99.90;;;;;;5034502;28;20672;-51
2023/04/25 02:14:51;;;;;;;13.60;4.80;;;5.00;99.90;;;;;;5034610;28;20226;-51
2023/04/25 02:17:17;;;;;;;9.33;4.43;;;5.00;99.90;;;;;;5034436;28;20542;-50
2023/04/25 02:19:44;;;;;;;17.63;4.80;;;5.00;99.90;;;;;;5034267;28;20234;-50
2023/04/25 02:22:10;;;;;;;14.53;4.77;;;5.00;99.90;;;;;;5034078;28;20304;-50
2023/04/25 02:24:36;;;;;;;14.33;4.90;;;5.10;99.90;;;;;;5034187;28;20694;-50
2023/04/25 02:27:02;;;;;;;10.37;4.70;;;5.10;99.90;;;;;;5034397;28;20205;-50
2023/04/25 02:29:27;;;;;;;15.07;4.47;;;5.00;99.90;;;;;;5034302;28;20258;-49
2023/04/25 02:31:53;;;;;;;13.80;5.20;;;5.10;99.90;;;;;;5034050;28;20283;-52
2023/04/25 02:34:18;;;;;;;16.50;4.87;;;5.00;99.90;;;;;;5016339;28;20277;-50
2023/04/25 02:36:44;;;;;;;12.17;4.40;;;5.10;99.90;;;;;;5034502;28;20237;-49
2023/04/25 02:39:10;;;;;;;12.83;5.03;;;5.00;99.90;;;;;;5034102;28;20268;-51
2023/04/25 02:41:36;;;;;;;10.93;4.53;;;5.10;99.90;;;;;;5034090;28;20246;-50
2023/04/25 02:44:01;;;;;;;12.07;4.83;;;5.10;99.90;;;;;;5033810;28;20178;-52
2023/04/25 02:46:27;;;;;;;15.43;5.33;;;5.10;99.90;;;;;;5033961;28;20531;-49
2023/04/25 02:48:52;;;;;;;11.97;5.20;;;5.10;99.90;;;;;;5033786;28;20210;-50
2023/04/25 02:51:18;;;;;;;13.20;4.77;;;5.10;99.90;;;;;;5033696;28;20202;-49
2023/04/25 02:53:44;;;;;;;13.73;5.07;;;5.10;99.90;;;;;;5033941;28;20206;-50
2023/04/25 02:56:09;;;;;;;12.40;5.40;;;5.10;99.90;;;;;;5033871;28;20184;-49
2023/04/25 02:58:35;;;;;;;15.37;5.20;;;5.10;99.90;;;;;;5033694;28;20258;-50
2023/04/25 03:01:00;;;;;;;13.50;4.77;;;5.10;99.90;;;;;;5034036;28;20632;-50
2023/04/25 03:03:26;;;;;;;13.63;5.87;;;5.40;99.90;;;;;;5034559;28;20219;-51
2023/04/25 03:05:52;;;;;;;13.47;5.67;;;5.10;99.90;;;;;;5033772;28;20199;-50
2023/04/25 03:08:18;;;;;;;15.43;5.57;;;5.10;99.90;;;;;;5033894;28;20257;-50
2023/04/25 03:10:45;;;;;;;19.30;5.50;;;5.10;99.90;;;;;;5033907;28;20186;-50
2023/04/25 03:13:10;;;;;;;12.30;5.10;;;5.20;99.90;;;;;;5033650;28;20571;-50
2023/04/25 03:15:36;;;;;;;12.00;5.57;;;5.20;99.90;;;;;;5033948;28;20269;-48
2023/04/25 03:18:02;;;;;;;11.60;4.87;;;5.20;99.90;;;;;;5033651;28;20177;-48
2023/04/25 03:20:28;;;;;;;14.60;5.67;;;5.20;99.90;;;;;;5033465;28;20636;-47
2023/04/25 03:22:54;;;;;;;12.20;5.20;;;5.30;99.90;;;;;;5033360;28;20207;-50
2023/04/25 03:25:20;;;;;;;15.80;5.60;;;5.30;99.90;;;;;;5033934;28;20262;-50
2023/04/25 03:27:45;;;;;;;9.73;4.87;;;5.30;99.90;;;;;;5033814;28;20267;-49
2023/04/25 03:30:11;;;;;;;11.97;5.00;;;5.30;99.90;;;;;;5033602;28;20631;-49
2023/04/25 03:32:37;;;;;;;13.90;4.73;;;5.30;99.90;;;;;;5033314;28;20224;-50
2023/04/25 03:35:03;;;;;;;18.57;5.33;;;5.30;99.90;;;;;;5033331;28;20183;-49
2023/04/25 03:37:29;;;;;;;17.23;5.77;;;5.40;99.90;;;;;;5033598;28;20555;-50
2023/04/25 03:39:54;;;;;;;13.00;5.57;;;5.40;99.90;;;;;;5033428;28;20217;-50
2023/04/25 03:42:22;;;;;;;17.47;5.20;;;5.40;99.90;;;;;;5033401;28;20631;-50
2023/04/25 03:44:48;;;;;;;11.13;4.43;;;5.40;99.90;;;;;;5033808;28;20249;-49
2023/04/25 03:47:14;;;;;;;11.73;5.23;;;5.40;99.90;;;;;;5033735;28;20199;-49
2023/04/25 03:49:39;;;;;;;12.97;4.53;;;5.40;99.90;;;;;;5033776;28;20289;-50
2023/04/25 03:52:05;;;;;;;11.83;4.77;;;5.40;99.90;;;;;;5033723;28;20204;-50
2023/04/25 03:54:31;;;;;;;13.07;5.10;;;5.40;99.90;;;;;;5034604;28;20630;-51
2023/04/25 03:56:56;;;;;;;17.73;5.30;;;5.40;99.90;;;;;;5038354;28;20186;-50
2023/04/25 03:59:22;;;;;;;12.40;5.10;;;5.30;99.90;;;;;;5045046;28;20209;-49
2023/04/25 04:01:47;;;;;;;7.57;4.30;;;5.30;99.90;;;;;;5038840;28;20552;-49
2023/04/25 04:04:13;;;;;;;16.30;4.63;;;5.30;99.90;;;;;;5033367;28;20172;-50
2023/04/25 04:06:39;;;;;;;20.07;4.90;;;5.30;99.90;;;;;;5033178;28;20178;-50
2023/04/25 04:09:05;;;;;;;13.50;4.87;;;5.30;99.90;;;;;;5033234;28;20198;-50
2023/04/25 04:11:32;;;;;;;17.03;5.10;;;5.30;99.90;;;;;;5033385;28;20164;-48
2023/04/25 04:13:57;;;;;;;14.37;5.10;;;5.30;99.90;;;;;;5033281;28;20254;-50
2023/04/25 04:16:23;;;;;;;12.27;5.27;;;5.30;99.90;;;;;;5033046;28;20642;-50
2023/04/25 04:18:48;;;;;;;13.37;5.27;;;5.30;99.90;;;;;;5032819;28;20674;-50
2023/04/25 04:21:14;;;;;;;16.33;5.97;;;5.30;99.90;;;;;;5032976;28;20189;-49
2023/04/25 04:23:40;;;;;;;17.33;5.67;;;5.30;99.90;;;;;;5034061;28;20281;-50
2023/04/25 04:26:08;;;;;;;19.70;6.37;;;5.30;99.90;;;;;;5036744;28;20267;-50
2023/04/25 04:28:35;;;;;;;16.77;5.37;;;5.30;99.90;;;;;;5036466;28;20179;-50
2023/04/25 04:31:02;;;;;;;14.10;5.33;;;5.30;99.90;;;;;;5037047;28;20249;-49
2023/04/25 04:33:28;;;;;;;14.40;4.83;;;5.40;99.90;;;;;;5036399;28;20200;-51
2023/04/25 04:35:55;;;;;;;9.93;5.03;;;5.40;99.90;;;;;;5036385;28;20662;-50
2023/04/25 04:38:21;;;;;;;12.90;4.87;;;5.40;99.90;;;;;;5036271;28;20567;-51
2023/04/25 04:40:47;;;;;;;15.43;5.57;;;5.40;99.90;;;;;;5018384;28;20293;-50
2023/04/25 04:43:13;;;;;;;13.60;5.83;;;5.40;99.90;;;;;;5036405;28;20197;-49
2023/04/25 04:45:40;;;;;;;15.20;5.17;;;5.50;99.90;;;;;;5036463;28;20179;-52
2023/04/25 04:48:06;;;;;;;16.17;5.47;;;5.40;99.90;;;;;;5036173;28;20187;-50
2023/04/25 04:50:35;;;;;;;20.67;5.80;;;5.50;99.90;;;;;;5036009;28;20237;-51
2023/04/25 04:53:02;;;;;;;16.77;5.43;;;5.50;99.90;;;;;;5035897;28;20564;-50
2023/04/25 04:55:27;;;;;;;18.13;5.63;;;5.50;99.90;;;;;;5036716;28;20583;-51
2023/04/25 04:57:53;;;;;;;16.47;5.43;;;5.50;99.90;;;;;;5018075;28;20209;-48
2023/04/25 05:00:18;;;;;;;23.00;5.87;;;5.50;99.90;;;;;;5036548;28;20229;-49
2023/04/25 05:02:44;;;;;;;12.27;5.03;;;5.50;99.90;;;;;;5035937;28;20287;-50
2023/04/25 05:05:10;;;;;;;14.07;5.03;;;5.60;99.90;;;;;;5035881;28;20181;-51
2023/04/25 05:07:35;;;;;;;13.83;5.10;;;5.60;99.90;;;;;;5036147;28;20213;-51
2023/04/25 05:10:01;;;;;;;13.53;5.23;;;5.60;99.90;;;;;;5035821;28;20177;-48
2023/04/25 05:12:27;;;;;;;16.93;6.10;;;5.60;99.90;;;;;;5035784;28;20203;-50
2023/04/25 05:14:52;;;;;;;12.17;5.23;;;5.60;99.90;;;;;;5035766;28;20681;-50
2023/04/25 05:17:18;;;;;;;14.40;4.97;;;5.70;99.90;;;;;;5035922;28;20189;-50
2023/04/25 05:19:43;;;;;;;18.77;5.13;;;5.70;99.90;;;;;;5036037;28;20255;-49
2023/04/25 05:22:09;;;;;;;22.87;6.20;;;5.70;99.90;;;;;;5035676;28;20198;-51
2023/04/25 05:24:35;;;;;;;14.30;5.30;;;5.70;99.90;;;;;;5035511;28;20187;-49
2023/04/25 05:27:00;;;;;;;13.87;4.93;;;5.70;99.90;;;;;;5035488;28;20216;-52
2023/04/25 05:29:26;;;;;;;18.67;6.00;;;5.80;99.90;;;;;;5035111;28;20585;-50
2023/04/25 05:31:51;;;;;;;9.43;4.83;;;5.80;99.90;;;;;;5035061;28;20669;-50
2023/04/25 05:34:17;;;;;;;20.73;5.20;;;5.80;99.90;;;;;;5034851;28;20259;-51
2023/04/25 05:36:42;;;;;;;14.53;5.17;;;5.80;99.90;;;;;;5034659;28;20192;-51
2023/04/25 05:39:08;;;;;;;16.13;5.60;;;5.90;99.90;;;;;;5034919;28;20559;-50
2023/04/25 05:41:34;;;;;;;16.03;5.20;;;5.90;99.90;;;;;;5035120;28;20640;-50
2023/04/25 05:43:59;;;;;;;12.53;4.83;;;6.00;99.90;;;;;;5034920;28;20211;-52
2023/04/25 05:46:25;;;;;;;18.33;5.17;;;6.10;99.90;;;;;;5035102;28;20284;-50
2023/04/25 05:48:50;;;;;;;18.00;5.10;;;6.10;99.90;;;;;;5034673;28;20199;-51
2023/04/25 05:51:18;;;;;;;16.43;4.60;;;6.10;99.90;;;;;;5034773;28;20183;-50
2023/04/25 05:53:43;;;;;;;13.27;4.27;;;6.20;99.90;;;;;;5034605;28;20213;-51
2023/04/25 05:56:09;;;;;;;16.53;4.77;;;6.20;99.90;;;;;;5034965;28;20187;-51
2023/04/25 05:58:35;;;;;;;24.37;4.90;;;6.30;99.90;;;;;;5034934;28;20186;-50
2023/04/25 06:01:02;;;;;;;19.40;5.50;;;6.40;99.90;;;;;;5034827;28;20206;-51
2023/04/25 06:03:28;;;;;;;18.33;4.50;;;6.40;99.90;;;;;;5034677;28;20207;-51
2023/04/25 06:05:53;;;;;;;20.10;4.70;;;6.50;99.90;;;;;;5035010;28;20187;-52
2023/04/25 06:08:19;;;;;;;20.40;4.67;;;6.60;99.90;;;;;;5034694;28;20188;-52
2023/04/25 06:10:45;;;;;;;15.53;4.97;;;6.60;99.90;;;;;;5034639;28;20181;-52
2023/04/25 06:13:10;;;;;;;11.00;4.10;;;6.70;99.90;;;;;;5034233;28;20210;-50
2023/04/25 06:15:36;;;;;;;16.17;4.90;;;6.80;99.90;;;;;;5034327;28;20181;-50
2023/04/25 06:18:01;;;;;;;14.17;4.57;;;6.80;99.90;;;;;;5034266;28;20208;-52
2023/04/25 06:20:27;;;;;;;15.97;4.00;;;6.90;99.90;;;;;;5034188;28;20212;-50
2023/04/25 06:22:53;;;;;;;18.77;3.80;;;6.90;99.90;;;;;;5016451;28;20210;-52
2023/04/25 06:25:19;;;;;;;13.07;3.97;;;6.90;99.90;;;;;;5034142;28;20172;-50
2023/04/25 06:27:44;;;;;;;10.87;3.87;;;6.90;99.90;;;;;;5034082;28;20180;-51
2023/04/25 06:30:11;;;;;;;12.43;4.23;;;7.00;99.90;;;;;;5034079;28;20256;-50
2023/04/25 06:32:37;;;;;;;16.70;3.47;;;7.00;99.90;;;;;;5034169;28;20207;-50
2023/04/25 06:35:03;;;;;;;10.73;3.50;;;7.10;99.90;;;;;;5034157;28;20177;-51
2023/04/25 06:37:30;;;;;;;14.87;4.27;;;7.10;99.90;;;;;;5034142;28;20193;-49
2023/04/25 06:39:55;;;;;;;16.03;3.87;;;7.10;99.90;;;;;;5034045;28;20205;-51
2023/04/25 06:42:21;;;;;;;11.83;3.53;;;7.20;99.90;;;;;;5034146;28;20239;-51
2023/04/25 06:44:46;;;;;;;16.87;4.10;;;7.30;99.90;;;;;;5033693;28;20184;-50
2023/04/25 06:47:12;;;;;;;11.60;3.40;;;7.30;99.90;;;;;;5033486;28;20268;-51
2023/04/25 06:49:37;;;;;;;11.13;3.53;;;7.40;99.90;;;;;;5033631;28;20203;-51
2023/04/25 06:52:03;;;;;;;9.93;3.50;;;7.40;99.90;;;;;;5033829;28;20204;-51
2023/04/25 06:54:29;;;;;;;12.53;3.47;;;7.50;99.90;;;;;;5033908;28;20185;-51
2023/04/25 06:56:55;;;;;;;15.70;3.60;;;7.50;99.90;;;;;;5033820;28;20190;-51
2023/04/25 06:59:21;;;;;;;16.30;3.93;;;7.50;99.90;;;;;;5033527;28;20211;-51
2023/04/25 07:01:47;;;;;;;13.77;3.47;;;7.50;99.90;;;;;;5035958;28;20201;-52
2023/04/25 07:04:12;;;;;;;11.73;3.57;;;7.50;99.90;;;;;;5036795;28;20264;-51
2023/04/25 07:06:42;;;;;;;9.87;2.90;;;7.60;99.90;;;;;;5034267;28;20183;-50
2023/04/25 07:09:11;;;;;;;21.93;4.40;;;7.60;99.90;;;;;;5033448;28;20711;-50
2023/04/25 07:11:37;;;;;;;14.87;3.20;;;7.60;99.90;;;;;;5033584;28;20181;-43
2023/04/25 07:14:03;;;;;;;12.07;3.30;;;7.60;99.90;;;;;;5033704;28;20683;-45
2023/04/25 07:16:28;;;;;;;12.13;3.27;;;7.60;99.90;;;;;;5033406;28;20187;-46
2023/04/25 07:18:54;;;;;;;10.17;3.23;;;7.70;99.90;;;;;;5033189;28;20186;-44
2023/04/25 07:21:20;;;;;;;10.13;3.23;;;7.80;99.90;;;;;;5033749;28;20188;-47
2023/04/25 07:23:45;;;;;;;15.17;3.63;;;7.80;99.90;;;;;;5033540;28;20193;-44
2023/04/25 07:26:11;;;;;;;17.03;3.80;;;7.90;99.90;;;;;;5015502;28;20264;-45
2023/04/25 07:28:36;;;;;;;12.73;2.80;;;8.00;99.90;;;;;;5033178;28;20242;-46
2023/04/25 07:31:02;;;;;;;12.57;3.83;;;8.00;99.90;;;;;;5033144;28;20268;-44
2023/04/25 07:33:28;;;;;;;12.03;3.83;;;8.10;99.90;;;;;;5033013;28;20205;-47
2023/04/25 07:35:55;;;;;;;8.83;3.13;;;8.10;99.90;;;;;;5033109;28;20187;-45
2023/04/25 07:38:21;;;;;;;12.57;3.13;;;8.20;99.90;;;;;;5033870;28;20189;-51
2023/04/25 07:40:48;;;;;;;9.20;2.90;;;8.30;99.90;;;;;;5033319;28;20208;-50
2023/04/25 07:43:16;;;;;;;9.00;2.17;;;8.30;99.90;;;;;;5033166;28;20193;-51
2023/04/25 07:45:42;;;;;;;9.17;2.57;;;8.40;99.90;;;;;;5033430;28;20164;-50
2023/04/25 07:48:08;;;;;;;14.30;2.67;;;8.40;99.90;;;;;;5033138;28;20213;-52
2023/04/25 07:50:33;;;;;;;7.80;2.63;;;8.50;99.90;;;;;;5033029;28;20560;-50
2023/04/25 07:52:59;;;;;;;18.70;2.53;;;8.50;99.90;;;;;;5032944;28;20251;-50
2023/04/25 07:55:24;;;;;;;12.13;2.37;;;8.60;99.90;;;;;;5015274;28;20185;-51
2023/04/25 07:57:50;;;;;;;8.40;2.60;;;8.60;99.90;;;;;;5032966;28;20547;-51
2023/04/25 08:00:16;;;;;;;8.83;2.17;;;8.60;99.90;;;;;;5036827;28;20244;-50
2023/04/25 08:02:41;;;;;;;8.27;2.20;;;8.60;99.90;;;;;;5036979;28;20215;-52
2023/04/25 08:05:11;;;;;;;8.03;2.33;;;8.60;99.90;;;;;;5037006;28;20180;-50
2023/04/25 08:07:37;;;;;;;11.23;2.57;;;8.70;99.90;;;;;;5036912;28;20191;-52
2023/04/25 08:10:03;;;;;;;9.57;2.57;;;8.80;99.90;;;;;;5036888;28;20187;-51
2023/04/25 08:12:29;;;;;;;13.33;2.80;;;8.90;99.90;;;;;;5036843;28;20681;-50
2023/04/25 08:14:54;;;;;;;9.40;3.13;;;9.00;99.90;;;;;;5036595;28;20186;-51
2023/04/25 08:17:20;;;;;;;7.73;2.43;;;9.10;99.90;;;;;;5036476;28;20178;-52
2023/04/25 08:19:45;;;;;;;7.97;2.97;;;9.20;99.90;;;;;;5036603;28;20238;-51
2023/04/25 08:22:12;;;;;;;12.13;3.07;;;9.20;99.90;;;;;;5036377;28;20569;-50
2023/04/25 08:24:38;;;;;;;8.33;2.50;;;9.20;99.90;;;;;;5036648;28;20213;-52
2023/04/25 08:27:03;;;;;;;6.47;1.97;;;9.30;99.90;;;;;;5036459;28;20616;-50
2023/04/25 08:29:29;;;;;;;9.00;2.03;;;9.40;99.90;;;;;;5036297;28;20183;-52
2023/04/25 08:31:54;;;;;;;9.73;2.17;;;9.50;99.90;;;;;;5036155;28;20235;-50
2023/04/25 08:34:20;;;;;;;8.57;2.43;;;9.60;99.90;;;;;;5036145;28;20255;-50
2023/04/25 08:36:46;;;;;;;7.27;2.13;;;9.50;99.90;;;;;;5036149;28;20185;-50
2023/04/25 08:39:12;;;;;;;11.63;2.60;;;9.50;99.90;;;;;;5018368;28;20219;-50
2023/04/25 08:41:38;;;;;;;10.07;2.13;;;9.50;99.90;;;;;;5036309;28;20168;-51
2023/04/25 08:44:05;;;;;;;17.57;3.10;;;9.60;99.90;;;;;;5036027;28;20523;-51
2023/04/25 08:46:31;;;;;;;10.80;2.40;;;9.60;99.90;;;;;;5036209;28;20184;-54
2023/04/25 08:49:01;;;;;;;6.77;2.27;;;9.60;99.90;;;;;;5018047;28;20339;-50
2023/04/25 08:51:30;;;;;;;17.80;2.37;;;9.60;99.90;;;;;;5035750;28;20192;-45
2023/04/25 08:54:02;;;;;;;9.20;2.33;;;9.60;99.90;;;;;;5036139;28;20258;-47
2023/04/25 08:56:28;;;;;;;9.67;2.30;;;9.60;99.90;;;;;;5036145;28;20169;-45
2023/04/25 08:58:55;;;;;;;8.07;2.23;;;9.60;99.90;;;;;;5035661;28;20196;-46
2023/04/25 09:01:21;;;;;;;8.90;2.50;;;9.60;99.90;;;;;;5035607;28;20181;-46
2023/04/25 09:03:47;;;;;;;9.13;2.17;;;9.70;99.90;;;;;;5018033;28;20645;-47
2023/04/25 09:06:13;;;;;;;8.57;2.60;;;9.90;99.90;;;;;;5035611;28;20202;-45
2023/04/25 09:08:40;;;;;;;7.63;1.53;;;9.90;99.90;;;;;;5035563;28;20170;-46
2023/04/25 09:11:07;;;;;;;9.67;2.47;;;9.90;99.90;;;;;;5035655;28;20726;-45
2023/04/25 09:13:32;;;;;;;11.47;2.23;;;10.00;99.90;;;;;;5035430;28;20277;-46
2023/04/25 09:15:58;;;;;;;8.70;2.27;;;10.00;99.90;;;;;;5017703;28;20280;-46
2023/04/25 09:18:32;;;;;;;9.10;1.70;;;10.00;99.90;;;;;;5035801;28;20180;-47
2023/04/25 09:21:09;;;;;;;5.53;1.60;;;10.00;99.90;;;;;;5035505;28;20212;-47
2023/04/25 09:23:44;;;;;;;11.93;2.10;;;9.90;99.90;;;;;;5017545;28;20204;-47
2023/04/25 09:26:09;;;;;;;5.40;2.00;;;9.90;99.90;;;;;;5035203;28;20207;-48
2023/04/25 09:28:37;;;;;;;7.57;2.47;;;9.90;99.90;;;;;;5035234;28;20180;-48
2023/04/25 09:31:03;;;;;;;7.93;2.23;;;9.80;99.90;;;;;;5035614;28;20180;-48
2023/04/25 09:33:34;;;;;;;6.10;1.90;;;10.00;99.90;;;;;;5035421;28;20200;-48
2023/04/25 09:36:05;;;;;;;7.17;2.50;;;10.10;99.90;;;;;;5017601;28;20184;-47
2023/04/25 09:38:40;;;;;;;7.90;2.40;;;10.30;99.90;;;;;;5035673;28;20211;-47
2023/04/25 09:41:05;;;;;;;8.90;2.50;;;10.50;99.90;;;;;;5035389;28;20192;-48
2023/04/25 09:43:31;;;;;;;10.60;3.03;;;10.70;99.90;;;;;;5035284;28;20538;-47
2023/04/25 09:46:00;;;;;;;9.10;2.37;;;10.70;99.90;;;;;;5035229;28;20205;-47
2023/04/25 09:48:27;;;;;;;8.57;2.30;;;10.70;99.90;;;;;;5034852;28;20196;-47
2023/04/25 09:51:13;;;;;;;8.03;1.70;;;10.60;99.90;;;;;;5035115;28;20181;-49
2023/04/25 09:53:44;;;;;;;12.77;1.80;;;10.50;99.90;;;;;;5034754;28;20212;-52
2023/04/25 09:56:11;;;;;;;10.97;2.17;;;10.60;99.90;;;;;;5035014;28;20196;-53
2023/04/25 09:58:38;;;;;;;7.37;2.10;;;10.80;99.90;;;;;;5034661;28;20177;-52
2023/04/25 10:01:06;;;;;;;5.50;2.10;;;11.00;99.90;;;;;;5034827;28;20223;-51
2023/04/25 10:03:33;;;;;;;6.30;2.00;;;11.00;99.90;;;;;;5034603;28;20679;-51
2023/04/25 10:06:01;;;;;;;4.30;1.80;;;10.80;99.90;;;;;;5034599;28;20173;-52
2023/04/25 10:08:35;;;;;;;15.57;2.80;;;10.60;99.90;;;;;;5034695;28;20550;-53
2023/04/25 10:11:03;;;;;;;6.13;2.10;;;10.50;99.90;;;;;;5034677;28;20586;-51
2023/04/25 10:13:31;;;;;;;4.87;1.70;;;10.40;99.90;;;;;;5034610;28;20608;-52
2023/04/25 10:15:58;;;;;;;5.97;1.90;;;10.40;99.90;;;;;;5016522;28;20649;-53
2023/04/25 10:18:24;;;;;;;5.07;1.67;;;10.40;99.90;;;;;;5034128;28;20176;-52
2023/04/25 10:20:50;;;;;;;6.43;2.10;;;10.50;99.90;;;;;;5033444;28;20237;-52
2023/04/25 10:23:16;;;;;;;8.10;2.37;;;10.50;99.90;;;;;;5034895;28;20221;-50
2023/04/25 10:25:43;;;;;;;7.67;2.27;;;10.70;99.90;;;;;;5034511;28;20184;-52
2023/04/25 10:28:08;;;;;;;5.47;1.97;;;10.90;99.90;;;;;;5034356;28;20208;-53
2023/04/25 10:30:34;;;;;;;6.10;2.10;;;11.10;99.90;;;;;;5016358;28;20306;-51
2023/04/25 10:33:00;;;;;;;4.57;1.77;;;11.30;99.90;;;;;;5016306;28;20569;-51
2023/04/25 10:35:27;;;;;;;7.47;1.80;;;11.40;99.90;;;;;;5034004;28;20187;-53
2023/04/25 10:37:58;;;;;;;6.80;2.20;;;11.40;99.90;;;;;;5040223;28;20275;-51
2023/04/25 10:40:24;;;;;;;5.07;1.70;;;11.40;99.90;;;;;;5041743;28;20212;-51
2023/04/25 10:42:54;;;;;;;5.93;1.77;;;11.40;99.90;;;;;;5038408;28;20203;-50
2023/04/25 10:45:20;;;;;;;6.63;1.90;;;11.10;99.90;;;;;;5034606;28;20158;-46
2023/04/25 10:47:46;;;;;;;7.53;2.00;;;11.00;99.90;;;;;;5035014;28;20185;-46
2023/04/25 10:50:15;;;;;;;6.37;2.17;;;10.80;99.90;;;;;;5035171;28;20176;-45
2023/04/25 10:52:40;;;;;;;5.73;2.00;;;10.80;99.90;;;;;;5018081;28;20200;-47
2023/04/25 10:55:06;;;;;;;4.90;1.90;;;10.80;99.90;;;;;;5034270;28;20180;-47
2023/04/25 10:57:47;;;;;;;8.57;1.90;;;10.80;99.90;;;;;;5033882;28;20196;-47
2023/04/25 11:00:18;;;;;;;10.03;1.67;;;10.90;99.90;;;;;;5034682;28;20196;-46
2023/04/25 11:02:46;;;;;;;7.03;2.33;;;11.00;99.90;;;;;;5015870;28;20196;-45
2023/04/25 11:05:31;;;;;;;3.87;1.70;;;10.90;99.90;;;;;;5033903;28;20196;-47
2023/04/25 11:07:58;;;;;;;5.00;2.20;;;10.80;99.90;;;;;;5033585;28;20164;-46
2023/04/25 11:10:29;;;;;;;5.67;1.90;;;10.70;99.90;;;;;;5033783;28;20188;-46
2023/04/25 11:12:54;;;;;;;8.77;2.37;;;10.60;99.90;;;;;;5033647;28;20200;-45
2023/04/25 11:15:21;;;;;;;5.17;2.00;;;10.60;99.90;;;;;;5033796;28;20236;-44
2023/04/25 11:17:46;;;;;;;5.57;1.80;;;10.80;99.90;;;;;;5033306;28;20734;-47
2023/04/25 11:20:14;;;;;;;3.97;1.90;;;10.70;99.90;;;;;;5033534;28;20204;-47
2023/04/25 11:22:40;;;;;;;4.90;1.80;;;10.70;99.90;;;;;;5033530;28;20202;-46
2023/04/25 11:25:08;;;;;;;7.37;2.07;;;10.80;99.90;;;;;;5033517;28;20181;-48
2023/04/25 11:27:34;;;;;;;5.40;1.97;;;10.70;99.90;;;;;;5033293;28;20176;-48
2023/04/25 11:30:13;;;;;;;7.63;1.57;;;10.70;99.90;;;;;;5033587;28;20525;-44
2023/04/25 11:32:41;;;;;;;5.33;1.67;;;10.80;99.90;;;;;;5033185;28;20276;-46
2023/04/25 11:35:07;;;;;;;7.73;1.90;;;10.80;99.90;;;;;;5037109;28;20617;-46
2023/04/25 11:37:33;;;;;;;5.87;1.97;;;10.90;99.90;;;;;;5037631;28;20173;-46
2023/04/25 11:40:00;;;;;;;5.27;2.13;;;10.90;99.90;;;;;;5037418;28;20220;-46
2023/04/25 11:42:25;;;;;;;8.03;2.20;;;11.10;99.90;;;;;;5037238;28;20227;-46
2023/04/25 11:44:51;;;;;;;7.63;1.87;;;11.20;99.90;;;;;;5037458;28;20200;-46
2023/04/25 11:47:17;;;;;;;6.30;1.67;;;11.40;99.90;;;;;;5020083;28;20505;-46
2023/04/25 11:49:43;;;;;;;8.17;1.83;;;11.70;99.90;;;;;;5037009;28;20200;-46
2023/04/25 11:52:08;;;;;;;4.33;1.90;;;12.00;99.90;;;;;;5037026;28;20224;-46
2023/04/25 11:54:37;;;;;;;5.33;1.90;;;12.20;99.90;;;;;;5037280;28;20184;-48
2023/04/25 11:57:03;;;;;;;9.00;1.80;;;12.30;99.90;;;;;;5037110;28;20177;-47
2023/04/25 11:59:29;;;;;;;3.23;1.40;;;12.30;99.90;;;;;;5037006;28;20236;-46
2023/04/25 12:01:57;;;;;;;5.93;2.00;;;12.10;99.90;;;;;;5019169;28;20692;-46
2023/04/25 12:04:24;;;;;;;6.33;1.43;;;11.90;99.90;;;;;;5037219;28;20268;-46
2023/04/25 12:06:54;;;;;;;5.07;1.50;;;11.50;99.90;;;;;;5037119;28;20618;-45
2023/04/25 12:09:28;;;;;;;4.80;1.57;;;11.10;99.90;;;;;;5036902;28;20203;-46
2023/04/25 12:11:55;;;;;;;5.23;1.80;;;10.60;99.90;;;;;;5036746;28;20204;-45
2023/04/25 12:14:26;;;;;;;6.00;1.87;;;10.30;99.90;;;;;;5036657;28;20222;-47
2023/04/25 12:16:55;;;;;;;4.90;1.90;;;10.10;99.90;;;;;;5037127;28;20180;-47
2023/04/25 12:19:21;;;;;;;6.33;2.07;;;9.90;99.90;;;;;;5036479;28;20196;-45
2023/04/25 12:21:47;;;;;;;4.00;1.67;;;9.80;99.90;;;;;;5036471;28;20242;-44
2023/04/25 12:24:15;;;;;;;10.17;2.47;;;9.60;99.90;;;;;;5036794;28;20181;-45
2023/04/25 12:27:00;;;;;;;7.37;1.40;;;9.70;99.90;;;;;;5036681;28;20169;-45
2023/04/25 12:29:27;;;;;;;2.70;1.13;;;9.70;99.90;;;;;;5036985;28;20169;-46
2023/04/25 12:31:54;;;;;;;6.67;1.53;;;9.60;99.90;;;;;;5036474;28;20205;-45
2023/04/25 12:34:20;;;;;;;6.37;1.80;;;9.80;99.90;;;;;;5036252;28;20645;-44
2023/04/25 12:36:47;;;;;;;4.83;1.73;;;10.00;99.90;;;;;;5036456;28;20558;-45
2023/04/25 12:39:23;;;;;;;4.97;1.53;;;10.30;99.90;;;;;;5036807;28;20201;-47
2023/04/25 12:41:50;;;;;;;5.83;2.10;;;10.50;99.90;;;;;;5036230;28;20722;-50
2023/04/25 12:44:16;;;;;;;4.13;1.93;;;10.80;99.90;;;;;;5035845;28;20177;-51